createdAt,value
2022-11-07T00:00:50.286Z,100134.56
2022-11-07T00:01:52.480Z,100143.28
2022-11-07T00:02:54.634Z,100148.31
2022-11-07T00:03:56.960Z,100142.47
2022-11-07T00:04:58.724Z,100130.19
2022-11-07T00:06:00.499Z,100135.22
2022-11-07T00:07:02.767Z,100129.56
2022-11-07T00:08:04.875Z,100130.84
2022-11-07T00:09:06.653Z,100135.41
2022-11-07T00:10:08.730Z,100139.13
2022-11-07T00:11:10.502Z,100136.44
2022-11-07T00:12:12.270Z,100127.88
2022-11-07T00:13:14.388Z,100136.59
2022-11-07T00:14:17.485Z,100129.56
2022-11-07T00:15:19.354Z,100131.22
2022-11-07T00:16:21.209Z,100124.94
2022-11-07T00:17:23.019Z,100130.59
2022-11-07T00:18:24.936Z,100130.59
2022-11-07T00:19:26.850Z,100122.88
2022-11-07T00:20:28.636Z,100110.56
2022-11-07T00:21:30.582Z,100125.56
2022-11-07T00:22:32.474Z,100123.72
2022-11-07T00:23:35.027Z,100127.44
2022-11-07T00:24:36.891Z,100139.88
2022-11-07T00:25:38.766Z,100126.16
2022-11-07T00:26:40.817Z,100136.53
2022-11-07T00:27:43.350Z,100124.09
2022-11-07T00:28:45.449Z,100124.94
2022-11-07T00:29:47.462Z,100131.16
2022-11-07T00:30:49.225Z,100126.97
2022-11-07T00:31:51.122Z,100128.66
2022-11-07T00:32:56.379Z,100110.94
2022-11-07T00:34:01.710Z,100129.50
2022-11-07T00:35:03.669Z,100129.66
2022-11-07T00:36:05.804Z,100128.00
2022-11-07T00:37:08.033Z,100130.03
2022-11-07T00:38:09.933Z,100127.34
2022-11-07T00:39:12.157Z,100132.75
2022-11-07T00:40:13.939Z,100135.44
2022-11-07T00:41:16.426Z,100133.97
2022-11-07T00:42:18.258Z,100134.78
2022-11-07T00:43:20.061Z,100130.41
2022-11-07T00:44:22.841Z,100125.41
2022-11-07T00:45:24.704Z,100132.47
2022-11-07T00:46:26.552Z,100131.44
2022-11-07T00:47:28.401Z,100131.16
2022-11-07T00:48:31.276Z,100143.22
2022-11-07T00:49:33.198Z,100139.69
2022-11-07T00:50:34.957Z,100137.00
2022-11-07T00:51:36.995Z,100135.31
2022-11-07T00:52:38.801Z,100137.00
2022-11-07T00:53:41.104Z,100132.63
2022-11-07T00:54:42.938Z,100140.72
2022-11-07T00:55:45.035Z,100139.03
2022-11-07T00:56:46.801Z,100141.72
2022-11-07T00:57:48.614Z,100145.44
2022-11-07T00:58:55.067Z,100139.25
2022-11-07T00:59:56.877Z,100132.56
2022-11-07T01:00:59.477Z,100147.31
2022-11-07T01:02:01.378Z,100147.31
2022-11-07T01:03:30.004Z,100146.03
2022-11-07T01:04:50.684Z,100148.44
2022-11-07T01:06:00.705Z,100151.78
2022-11-07T01:07:02.801Z,100145.94
2022-11-07T01:08:05.522Z,100157.72
2022-11-07T01:09:09.366Z,100163.47
2022-11-07T01:10:11.143Z,100147.78
2022-11-07T01:11:13.397Z,100148.72
2022-11-07T01:12:15.172Z,100162.19
2022-11-07T01:13:17.382Z,100142.41
2022-11-07T01:14:21.693Z,100153.44
2022-11-07T01:15:23.548Z,100150.13
2022-11-07T01:16:26.896Z,100157.16
2022-11-07T01:17:28.770Z,100150.75
2022-11-07T01:18:30.653Z,100145.28
2022-11-07T01:19:32.427Z,100151.97
2022-11-07T01:20:34.252Z,100157.34
2022-11-07T01:21:38.573Z,100157.34
2022-11-07T01:22:40.500Z,100156.31
2022-11-07T01:23:42.815Z,100158.19
2022-11-07T01:24:44.877Z,100154.84
2022-11-07T01:25:46.637Z,100162.94
2022-11-07T01:26:48.979Z,100160.22
2022-11-07T01:27:50.786Z,100162.94
2022-11-07T01:28:52.658Z,100139.16
2022-11-07T01:29:54.436Z,100135.06
2022-11-07T01:30:56.213Z,100153.19
2022-11-07T01:31:57.976Z,100161.25
2022-11-07T01:32:59.805Z,100155.88
2022-11-07T01:34:02.453Z,100157.72
2022-11-07T01:35:04.621Z,100154.19
2022-11-07T01:36:09.477Z,100156.03
2022-11-07T01:37:11.573Z,100150.00
2022-11-07T01:38:13.416Z,100140.81
2022-11-07T01:39:15.520Z,100155.22
2022-11-07T01:40:17.393Z,100155.59
2022-11-07T01:41:25.647Z,100150.88
2022-11-07T01:42:27.636Z,100155.88
2022-11-07T01:43:42.873Z,100142.41
2022-11-07T01:44:51.465Z,100154.00
2022-11-07T01:45:53.297Z,100152.16
2022-11-07T01:46:59.396Z,100150.88
2022-11-07T01:48:03.239Z,100151.69
2022-11-07T01:49:20.296Z,100152.69
2022-11-07T01:50:24.876Z,100152.53
2022-11-07T01:51:28.601Z,100152.53
2022-11-07T01:52:35.587Z,100163.47
2022-11-07T01:53:38.163Z,100160.78
2022-11-07T01:54:56.009Z,100159.28
2022-11-07T01:55:57.878Z,100161.44
2022-11-07T01:57:06.929Z,100160.97
2022-11-07T01:58:09.605Z,100165.34
2022-11-07T01:59:20.005Z,100157.59
2022-11-07T02:00:25.211Z,100166.16
2022-11-07T02:01:27.344Z,100168.19
2022-11-07T02:02:29.348Z,100156.78
2022-11-07T02:03:31.302Z,100148.88
2022-11-07T02:04:33.158Z,100140.06
2022-11-07T02:05:37.689Z,100146.56
2022-11-07T02:06:45.546Z,100142.84
2022-11-07T02:07:47.518Z,100150.56
2022-11-07T02:08:50.774Z,100152.81
2022-11-07T02:09:53.828Z,100155.50
2022-11-07T02:11:00.148Z,100142.91
2022-11-07T02:12:02.781Z,100150.09
2022-11-07T02:13:05.306Z,100155.50
2022-11-07T02:14:07.119Z,100151.25
2022-11-07T02:15:10.274Z,100146.91
2022-11-07T02:16:12.110Z,100146.75
2022-11-07T02:17:16.206Z,100149.59
2022-11-07T02:18:17.992Z,100148.56
2022-11-07T02:19:48.080Z,100152.97
2022-11-07T02:20:52.369Z,100137.16
2022-11-07T02:21:58.072Z,100153.44
2022-11-07T02:23:27.488Z,100158.63
2022-11-07T02:24:33.513Z,100155.78
2022-11-07T02:25:35.881Z,100144.22
2022-11-07T02:26:39.669Z,100160.03
2022-11-07T02:27:43.255Z,100156.66
2022-11-07T02:28:47.997Z,100159.53
2022-11-07T02:29:56.105Z,100160.56
2022-11-07T02:30:57.781Z,100152.00
2022-11-07T02:32:04.512Z,100158.25
2022-11-07T02:33:18.264Z,100153.13
2022-11-07T02:34:19.948Z,100152.28
2022-11-07T02:35:42.588Z,100154.63
2022-11-07T02:36:44.457Z,100146.75
2022-11-07T02:37:46.226Z,100153.31
2022-11-07T02:38:51.772Z,100152.88
2022-11-07T02:39:53.796Z,100150.16
2022-11-07T02:41:12.224Z,100147.84
2022-11-07T02:42:14.157Z,100148.28
2022-11-07T02:43:20.088Z,100154.69
2022-11-07T02:44:22.597Z,100156.56
2022-11-07T02:45:32.731Z,100149.53
2022-11-07T02:46:35.357Z,100130.97
2022-11-07T02:47:37.106Z,100153.03
2022-11-07T02:48:45.361Z,100161.31
2022-11-07T02:49:47.045Z,100156.75
2022-11-07T02:50:48.758Z,100163.13
2022-11-07T02:51:50.578Z,100170.56
2022-11-07T02:52:52.316Z,100162.50
2022-11-07T02:53:54.556Z,100161.19
2022-11-07T02:54:56.367Z,100168.25
2022-11-07T02:55:58.090Z,100175.13
2022-11-07T02:56:59.761Z,100166.38
2022-11-07T02:58:01.522Z,100161.84
2022-11-07T02:59:03.385Z,100159.16
2022-11-07T03:00:07.645Z,100160.16
2022-11-07T03:01:09.563Z,100166.19
2022-11-07T03:02:11.451Z,100166.56
2022-11-07T03:03:14.192Z,100174.44
2022-11-07T03:04:16.168Z,100171.59
2022-11-07T03:05:19.574Z,100164.69
2022-11-07T03:06:24.677Z,100159.31
2022-11-07T03:07:26.633Z,100161.84
2022-11-07T03:08:29.158Z,100158.50
2022-11-07T03:09:30.896Z,100155.53
2022-11-07T03:10:32.794Z,100169.06
2022-11-07T03:11:34.509Z,100165.72
2022-11-07T03:12:36.869Z,100169.25
2022-11-07T03:13:38.968Z,100164.91
2022-11-07T03:14:40.673Z,100152.34
2022-11-07T03:15:42.422Z,100163.88
2022-11-07T03:16:44.184Z,100157.66
2022-11-07T03:17:45.906Z,100138.25
2022-11-07T03:18:48.109Z,100159.53
2022-11-07T03:19:49.873Z,100155.97
2022-11-07T03:20:51.607Z,100155.97
2022-11-07T03:21:53.347Z,100150.53
2022-11-07T03:22:55.102Z,100155.53
2022-11-07T03:23:56.780Z,100168.59
2022-11-07T03:24:58.516Z,100157.84
2022-11-07T03:26:00.489Z,100165.91
2022-11-07T03:27:02.222Z,100161.56
2022-11-07T03:28:04.679Z,100156.56
2022-11-07T03:29:06.681Z,100158.88
2022-11-07T03:30:08.956Z,100141.03
2022-11-07T03:31:10.777Z,100169.63
2022-11-07T03:32:12.696Z,100156.56
2022-11-07T03:33:14.606Z,100170.44
2022-11-07T03:34:16.505Z,100162.56
2022-11-07T03:35:18.254Z,100162.56
2022-11-07T03:36:19.916Z,100173.34
2022-11-07T03:37:21.580Z,100172.31
2022-11-07T03:38:23.429Z,100170.66
2022-11-07T03:39:26.113Z,100162.28
2022-11-07T03:40:27.890Z,100166.28
2022-11-07T03:41:29.609Z,100172.50
2022-11-07T03:42:31.418Z,100161.06
2022-11-07T03:43:33.240Z,100160.91
2022-11-07T03:44:34.917Z,100166.28
2022-11-07T03:45:36.629Z,100156.91
2022-11-07T03:46:38.361Z,100152.28
2022-11-07T03:47:42.122Z,100142.53
2022-11-07T03:48:44.090Z,100157.19
2022-11-07T03:49:45.794Z,100162.56
2022-11-07T03:50:47.549Z,100159.78
2022-11-07T03:51:49.279Z,100148.38
2022-11-07T03:52:51.080Z,100165.28
2022-11-07T03:53:53.022Z,100161.94
2022-11-07T03:54:54.963Z,100160.91
2022-11-07T03:55:57.058Z,100153.22
2022-11-07T03:56:58.816Z,100160.06
2022-11-07T03:58:00.647Z,100137.03
2022-11-07T03:59:02.623Z,100164.63
2022-11-07T04:00:06.013Z,100159.41
2022-11-07T04:01:13.703Z,100161.56
2022-11-07T04:02:15.622Z,100165.44
2022-11-07T04:03:17.822Z,100161.72
2022-11-07T04:04:19.681Z,100155.53
2022-11-07T04:05:21.519Z,100156.56
2022-11-07T04:06:23.730Z,100153.88
2022-11-07T04:07:25.453Z,100154.59
2022-11-07T04:08:27.256Z,100152.56
2022-11-07T04:09:29.094Z,100150.31
2022-11-07T04:10:31.053Z,100153.88
2022-11-07T04:11:51.218Z,100145.88
2022-11-07T04:13:11.381Z,100155.97
2022-11-07T04:14:31.720Z,100156.47
2022-11-07T04:15:51.929Z,100155.44
2022-11-07T04:17:12.148Z,100153.78
2022-11-07T04:18:13.914Z,100156.09
2022-11-07T04:19:15.732Z,100152.28
2022-11-07T04:20:17.457Z,100152.63
2022-11-07T04:21:19.119Z,100140.78
2022-11-07T04:22:20.793Z,100153.88
2022-11-07T04:23:22.502Z,100147.84
2022-11-07T04:24:24.162Z,100142.44
2022-11-07T04:25:44.409Z,100147.84
2022-11-07T04:27:04.706Z,100151.63
2022-11-07T04:28:06.386Z,100146.88
2022-11-07T04:29:08.182Z,100147.25
2022-11-07T04:30:26.865Z,100142.09
2022-11-07T04:31:28.821Z,100144.41
2022-11-07T04:32:30.567Z,100153.50
2022-11-07T04:33:32.389Z,100152.00
2022-11-07T04:34:34.173Z,100149.66
2022-11-07T04:35:35.848Z,100155.91
2022-11-07T04:36:37.517Z,100153.22
2022-11-07T04:37:39.312Z,100145.97
2022-11-07T04:38:41.003Z,100148.84
2022-11-07T04:39:42.662Z,100151.34
2022-11-07T04:40:44.446Z,100147.19
2022-11-07T04:41:46.122Z,100153.22
2022-11-07T04:42:49.097Z,100155.91
2022-11-07T04:43:51.357Z,100139.94
2022-11-07T04:44:53.017Z,100144.28
2022-11-07T04:45:54.784Z,100150.03
2022-11-07T04:46:56.453Z,100150.53
2022-11-07T04:47:58.165Z,100137.16
2022-11-07T04:48:59.867Z,100148.00
2022-11-07T04:50:01.646Z,100147.19
2022-11-07T04:51:03.421Z,100137.25
2022-11-07T04:52:05.182Z,100140.13
2022-11-07T04:53:06.882Z,100144.50
2022-11-07T04:54:13.384Z,100134.28
2022-11-07T04:55:24.783Z,100144.94
2022-11-07T04:56:30.479Z,100148.47
2022-11-07T04:57:35.039Z,100150.97
2022-11-07T04:58:36.897Z,100150.53
2022-11-07T04:59:38.700Z,100152.19
2022-11-07T05:00:40.384Z,100155.91
2022-11-07T05:01:42.149Z,100150.53
2022-11-07T05:02:44.074Z,100155.63
2022-11-07T05:03:45.798Z,100149.88
2022-11-07T05:04:47.502Z,100148.00
2022-11-07T05:05:49.187Z,100143.47
2022-11-07T05:06:50.890Z,100139.75
2022-11-07T05:07:52.618Z,100138.91
2022-11-07T05:08:54.385Z,100139.09
2022-11-07T05:09:56.201Z,100140.94
2022-11-07T05:10:57.952Z,100129.75
2022-11-07T05:11:59.854Z,100137.06
2022-11-07T05:13:01.615Z,100142.63
2022-11-07T05:14:03.293Z,100142.63
2022-11-07T05:15:05.457Z,100145.97
2022-11-07T05:16:14.968Z,100143.47
2022-11-07T05:17:17.191Z,100153.00
2022-11-07T05:18:21.207Z,100147.63
2022-11-07T05:19:23.042Z,100152.34
2022-11-07T05:20:51.148Z,100152.09
2022-11-07T05:22:12.831Z,100147.09
2022-11-07T05:23:21.453Z,100140.50
2022-11-07T05:24:23.217Z,100145.88
2022-11-07T05:25:24.994Z,100145.41
2022-11-07T05:26:26.733Z,100140.41
2022-11-07T05:27:28.553Z,100145.13
2022-11-07T05:28:38.642Z,100138.09
2022-11-07T05:29:41.433Z,100134.75
2022-11-07T05:30:45.171Z,100146.81
2022-11-07T05:31:46.950Z,100148.66
2022-11-07T05:32:48.659Z,100131.41
2022-11-07T05:33:50.364Z,100143.47
2022-11-07T05:34:52.105Z,100125.91
2022-11-07T05:35:53.835Z,100140.13
2022-11-07T05:36:55.565Z,100135.13
2022-11-07T05:37:57.418Z,100134.75
2022-11-07T05:38:59.129Z,100132.22
2022-11-07T05:40:00.824Z,100133.91
2022-11-07T05:41:04.410Z,100131.22
2022-11-07T05:42:06.574Z,100115.81
2022-11-07T05:43:10.798Z,100133.09
2022-11-07T05:44:12.475Z,100128.34
2022-11-07T05:45:14.790Z,100122.31
2022-11-07T05:46:16.451Z,100117.69
2022-11-07T05:47:18.203Z,100131.22
2022-11-07T05:48:20.184Z,100125.84
2022-11-07T05:49:21.846Z,100129.75
2022-11-07T05:50:23.530Z,100124.38
2022-11-07T05:51:25.286Z,100133.09
2022-11-07T05:52:26.989Z,100134.91
2022-11-07T05:53:29.430Z,100133.09
2022-11-07T05:54:33.126Z,100121.38
2022-11-07T05:55:34.929Z,100126.84
2022-11-07T05:56:37.632Z,100132.22
2022-11-07T05:57:39.397Z,100124.16
2022-11-07T05:58:41.135Z,100126.03
2022-11-07T05:59:42.884Z,100124.38
2022-11-07T06:00:45.044Z,100128.88
2022-11-07T06:01:50.951Z,100125.38
2022-11-07T06:02:57.616Z,100128.06
2022-11-07T06:03:59.493Z,100134.75
2022-11-07T06:05:01.253Z,100126.84
2022-11-07T06:06:02.939Z,100134.09
2022-11-07T06:07:04.740Z,100135.13
2022-11-07T06:08:07.973Z,100131.41
2022-11-07T06:09:09.823Z,100135.13
2022-11-07T06:10:11.565Z,100136.59
2022-11-07T06:11:13.309Z,100143.47
2022-11-07T06:12:15.110Z,100136.22
2022-11-07T06:13:17.402Z,100141.44
2022-11-07T06:14:19.427Z,100140.22
2022-11-07T06:15:21.090Z,100136.50
2022-11-07T06:16:22.866Z,100140.69
2022-11-07T06:17:24.620Z,100134.94
2022-11-07T06:18:26.340Z,100139.13
2022-11-07T06:19:28.026Z,100130.59
2022-11-07T06:20:30.718Z,100139.56
2022-11-07T06:21:32.502Z,100142.53
2022-11-07T06:22:34.213Z,100146.56
2022-11-07T06:23:35.960Z,100148.88
2022-11-07T06:24:37.621Z,100152.06
2022-11-07T06:25:39.666Z,100140.91
2022-11-07T06:26:41.920Z,100143.22
2022-11-07T06:27:43.689Z,100146.41
2022-11-07T06:28:45.457Z,100150.38
2022-11-07T06:29:47.134Z,100132.03
2022-11-07T06:30:48.836Z,100155.03
2022-11-07T06:31:50.518Z,100160.03
2022-11-07T06:32:52.257Z,100152.59
2022-11-07T06:33:53.934Z,100155.56
2022-11-07T06:34:55.654Z,100152.50
2022-11-07T06:36:05.470Z,100145.72
2022-11-07T06:37:07.579Z,100150.53
2022-11-07T06:38:10.803Z,100152.84
2022-11-07T06:39:12.679Z,100160.56
2022-11-07T06:40:14.449Z,100163.72
2022-11-07T06:41:16.279Z,100161.69
2022-11-07T06:42:17.971Z,100163.13
2022-11-07T06:43:20.400Z,100157.56
2022-11-07T06:44:22.461Z,100158.00
2022-11-07T06:45:24.203Z,100163.88
2022-11-07T06:46:26.165Z,100168.06
2022-11-07T06:47:28.678Z,100170.53
2022-11-07T06:48:30.764Z,100161.31
2022-11-07T06:49:32.600Z,100168.16
2022-11-07T06:50:35.159Z,100171.50
2022-11-07T06:51:36.996Z,100168.63
2022-11-07T06:52:38.699Z,100161.75
2022-11-07T06:53:40.748Z,100164.06
2022-11-07T06:54:43.388Z,100167.84
2022-11-07T06:55:45.047Z,100166.63
2022-11-07T06:56:46.766Z,100159.38
2022-11-07T06:57:48.689Z,100145.56
2022-11-07T06:58:50.828Z,100173.31
2022-11-07T06:59:52.594Z,100175.81
2022-11-07T07:01:04.039Z,100163.84
2022-11-07T07:02:05.891Z,100173.19
2022-11-07T07:03:07.699Z,100175.91
2022-11-07T07:04:11.497Z,100169.66
2022-11-07T07:05:17.118Z,100172.19
2022-11-07T07:06:21.767Z,100175.50
2022-11-07T07:07:23.590Z,100178.22
2022-11-07T07:08:25.293Z,100175.50
2022-11-07T07:09:28.411Z,100177.19
2022-11-07T07:10:30.327Z,100178.84
2022-11-07T07:11:32.185Z,100184.03
2022-11-07T07:12:34.767Z,100169.91
2022-11-07T07:13:36.942Z,100173.91
2022-11-07T07:14:38.634Z,100178.47
2022-11-07T07:15:50.515Z,100178.94
2022-11-07T07:16:53.069Z,100182.91
2022-11-07T07:17:58.653Z,100183.72
2022-11-07T07:19:00.448Z,100178.97
2022-11-07T07:20:02.206Z,100175.25
2022-11-07T07:21:11.395Z,100179.81
2022-11-07T07:22:14.090Z,100182.97
2022-11-07T07:23:17.817Z,100188.16
2022-11-07T07:24:19.790Z,100183.59
2022-11-07T07:25:21.774Z,100186.94
2022-11-07T07:26:23.436Z,100186.94
2022-11-07T07:27:25.138Z,100182.38
2022-11-07T07:28:26.818Z,100187.97
2022-11-07T07:29:28.497Z,100184.88
2022-11-07T07:30:30.465Z,100179.22
2022-11-07T07:31:32.431Z,100186.38
2022-11-07T07:32:37.090Z,100185.72
2022-11-07T07:33:39.119Z,100179.47
2022-11-07T07:34:40.918Z,100185.34
2022-11-07T07:35:42.733Z,100185.97
2022-11-07T07:36:44.393Z,100188.69
2022-11-07T07:37:50.760Z,100183.28
2022-11-07T07:38:52.743Z,100183.09
2022-11-07T07:39:54.500Z,100189.31
2022-11-07T07:40:58.094Z,100182.47
2022-11-07T07:41:59.782Z,100180.59
2022-11-07T07:43:01.481Z,100183.09
2022-11-07T07:44:03.269Z,100183.94
2022-11-07T07:45:05.334Z,100189.13
2022-11-07T07:46:08.449Z,100187.47
2022-11-07T07:47:11.533Z,100178.09
2022-11-07T07:48:13.476Z,100183.75
2022-11-07T07:49:15.477Z,100174.72
2022-11-07T07:50:17.226Z,100192.88
2022-11-07T07:51:18.894Z,100181.22
2022-11-07T07:52:20.688Z,100170.59
2022-11-07T07:53:22.463Z,100178.66
2022-11-07T07:54:24.209Z,100187.66
2022-11-07T07:55:26.057Z,100174.09
2022-11-07T07:56:28.044Z,100179.56
2022-11-07T07:57:29.877Z,100178.75
2022-11-07T07:58:31.550Z,100175.41
2022-11-07T07:59:33.424Z,100172.03
2022-11-07T08:00:35.864Z,100176.03
2022-11-07T08:01:37.862Z,100178.75
2022-11-07T08:02:43.620Z,100171.69
2022-11-07T08:04:00.818Z,100167.97
2022-11-07T08:05:04.050Z,100172.97
2022-11-07T08:06:06.093Z,100168.78
2022-11-07T08:07:08.222Z,100176.88
2022-11-07T08:08:10.056Z,100168.97
2022-11-07T08:09:11.830Z,100175.19
2022-11-07T08:10:39.619Z,100179.94
2022-11-07T08:11:35.658Z,100181.06
2022-11-07T08:12:37.330Z,100182.47
2022-11-07T08:13:39.142Z,100175.41
2022-11-07T08:14:40.788Z,100177.44
2022-11-07T08:15:42.494Z,100164.53
2022-11-07T08:16:44.305Z,100164.97
2022-11-07T08:17:46.489Z,100168.69
2022-11-07T08:18:48.253Z,100165.19
2022-11-07T08:19:50.083Z,100167.88
2022-11-07T08:20:54.014Z,100167.88
2022-11-07T08:21:55.720Z,100160.59
2022-11-07T08:23:15.767Z,100164.97
2022-11-07T08:24:18.425Z,100152.97
2022-11-07T08:25:20.116Z,100139.81
2022-11-07T08:26:21.835Z,100155.22
2022-11-07T08:27:23.605Z,100156.25
2022-11-07T08:28:27.573Z,100145.59
2022-11-07T08:29:29.321Z,100162.50
2022-11-07T08:30:31.847Z,100151.88
2022-11-07T08:31:33.587Z,100153.75
2022-11-07T08:32:35.387Z,100152.91
2022-11-07T08:33:37.293Z,100144.97
2022-11-07T08:34:39.286Z,100154.97
2022-11-07T08:35:42.705Z,100157.66
2022-11-07T08:36:44.659Z,100157.66
2022-11-07T08:37:46.336Z,100162.03
2022-11-07T08:38:48.084Z,100154.97
2022-11-07T08:39:49.866Z,100150.81
2022-11-07T08:40:52.330Z,100154.97
2022-11-07T08:41:53.994Z,100154.97
2022-11-07T08:43:00.577Z,100149.78
2022-11-07T08:44:02.241Z,100142.25
2022-11-07T08:45:04.358Z,100139.19
2022-11-07T08:46:06.282Z,100145.03
2022-11-07T08:47:08.742Z,100144.19
2022-11-07T08:48:10.689Z,100136.50
2022-11-07T08:49:12.481Z,100133.78
2022-11-07T08:50:14.234Z,100127.38
2022-11-07T08:51:15.990Z,100122.75
2022-11-07T08:52:18.051Z,100130.06
2022-11-07T08:53:20.390Z,100125.91
2022-11-07T08:54:22.378Z,100130.91
2022-11-07T08:55:24.263Z,100130.03
2022-11-07T08:56:26.058Z,100130.91
2022-11-07T08:57:27.742Z,100138.16
2022-11-07T08:58:30.312Z,100140.84
2022-11-07T08:59:32.263Z,100130.06
2022-11-07T09:00:35.144Z,100140.03
2022-11-07T09:01:55.931Z,100131.47
2022-11-07T09:04:30.258Z,100134.50
2022-11-07T09:05:32.381Z,100133.00
2022-11-07T09:06:34.056Z,100138.78
2022-11-07T09:07:38.721Z,100122.97
2022-11-07T09:08:41.153Z,100136.50
2022-11-07T09:09:42.890Z,100133.78
2022-11-07T09:10:44.662Z,100129.44
2022-11-07T09:11:46.348Z,100126.72
2022-11-07T09:12:49.871Z,100125.06
2022-11-07T09:13:53.237Z,100132.13
2022-11-07T09:14:55.021Z,100130.06
2022-11-07T09:16:04.750Z,100132.97
2022-11-07T09:17:06.483Z,100123.84
2022-11-07T09:18:08.211Z,100127.59
2022-11-07T09:19:10.025Z,100117.19
2022-11-07T09:20:11.879Z,100114.25
2022-11-07T09:21:17.660Z,100109.66
2022-11-07T09:22:22.562Z,100105.31
2022-11-07T09:23:25.275Z,100118.00
2022-11-07T09:24:27.090Z,100122.19
2022-11-07T09:25:28.836Z,100115.94
2022-11-07T09:26:30.822Z,100126.72
2022-11-07T09:27:32.518Z,100114.28
2022-11-07T09:28:34.832Z,100121.34
2022-11-07T09:29:36.602Z,100119.66
2022-11-07T09:30:38.334Z,100117.81
2022-11-07T09:31:40.102Z,100118.84
2022-11-07T09:32:45.757Z,100119.66
2022-11-07T09:33:47.811Z,100119.50
2022-11-07T09:34:55.957Z,100120.53
2022-11-07T09:36:04.845Z,100118.66
2022-11-07T09:37:06.710Z,100115.56
2022-11-07T09:38:08.469Z,100116.59
2022-11-07T09:39:10.160Z,100106.78
2022-11-07T09:40:24.669Z,100115.94
2022-11-07T09:41:41.686Z,100116.19
2022-11-07T09:42:57.249Z,100106.00
2022-11-07T09:44:37.455Z,100116.44
2022-11-07T09:45:51.681Z,100118.97
2022-11-07T09:47:07.010Z,100107.31
2022-11-07T09:48:17.494Z,100106.69
2022-11-07T09:49:29.564Z,100114.13
2022-11-07T09:50:39.256Z,100096.06
2022-11-07T09:51:46.731Z,100105.81
2022-11-07T09:52:55.074Z,100107.28
2022-11-07T09:54:03.315Z,100097.06
2022-11-07T09:55:09.338Z,100095.66
2022-11-07T09:56:13.197Z,100102.94
2022-11-07T09:57:17.667Z,100096.91
2022-11-07T09:58:41.962Z,100075.09
2022-11-07T09:59:53.222Z,100104.38
2022-11-07T10:00:59.929Z,100089.44
2022-11-07T10:02:04.147Z,100096.69
2022-11-07T10:03:08.728Z,100104.78
2022-11-07T10:04:27.340Z,100095.03
2022-11-07T10:05:54.598Z,100095.28
2022-11-07T10:07:03.417Z,100100.66
2022-11-07T10:08:49.444Z,100094.50
2022-11-07T10:10:31.590Z,100093.09
2022-11-07T10:11:39.168Z,100093.66
2022-11-07T10:13:05.105Z,100096.75
2022-11-07T10:14:35.856Z,100095.72
2022-11-07T10:15:48.493Z,100097.22
2022-11-07T10:17:00.459Z,100091.38
2022-11-07T10:18:35.090Z,100085.34
2022-11-07T10:20:10.756Z,100090.78
2022-11-07T10:21:39.283Z,100086.44
2022-11-07T10:23:07.784Z,100082.03
2022-11-07T10:24:37.770Z,100085.00
2022-11-07T10:25:50.337Z,100085.41
2022-11-07T10:26:53.038Z,100077.66
2022-11-07T10:28:16.957Z,100084.09
2022-11-07T10:29:20.811Z,100062.03
2022-11-07T10:30:22.645Z,100086.38
2022-11-07T10:31:28.234Z,100080.72
2022-11-07T10:32:54.154Z,100074.53
2022-11-07T10:34:02.619Z,100074.72
2022-11-07T10:35:27.190Z,100071.47
2022-11-07T10:36:31.577Z,100070.38
2022-11-07T10:37:33.267Z,100079.94
2022-11-07T10:38:35.737Z,100074.94
2022-11-07T10:39:37.581Z,100079.47
2022-11-07T10:40:41.699Z,100076.16
2022-11-07T10:41:58.844Z,100070.75
2022-11-07T10:43:03.326Z,100077.44
2022-11-07T10:44:10.367Z,100074.94
2022-11-07T10:45:14.480Z,100063.13
2022-11-07T10:46:27.419Z,100066.84
2022-11-07T10:47:29.158Z,100052.03
2022-11-07T10:48:31.247Z,100066.63
2022-11-07T10:49:33.173Z,100062.50
2022-11-07T10:50:34.888Z,100064.34
2022-11-07T10:51:42.118Z,100067.25
2022-11-07T10:52:53.386Z,100057.91
2022-11-07T10:53:55.077Z,100067.66
2022-11-07T10:55:15.323Z,100056.72
2022-11-07T10:56:19.587Z,100053.16
2022-11-07T10:57:23.595Z,100059.41
2022-11-07T10:58:30.239Z,100056.88
2022-11-07T10:59:36.568Z,100055.84
2022-11-07T11:00:41.440Z,100055.84
2022-11-07T11:01:51.107Z,100050.84
2022-11-07T11:02:54.315Z,100048.56
2022-11-07T11:03:56.076Z,100055.84
2022-11-07T11:05:03.215Z,100056.06
2022-11-07T11:06:30.276Z,100055.28
2022-11-07T11:07:37.657Z,100060.84
2022-11-07T11:08:39.567Z,100058.38
2022-11-07T11:09:56.762Z,100056.50
2022-11-07T11:10:58.558Z,100058.38
2022-11-07T11:12:13.836Z,100054.81
2022-11-07T11:13:34.156Z,100053.41
2022-11-07T11:14:35.827Z,100056.31
2022-11-07T11:15:45.916Z,100048.56
2022-11-07T11:16:53.012Z,100056.88
2022-11-07T11:18:15.742Z,100042.13
2022-11-07T11:19:22.586Z,100058.16
2022-11-07T11:20:33.419Z,100052.13
2022-11-07T11:21:46.857Z,100055.69
2022-11-07T11:22:48.833Z,100045.47
2022-11-07T11:23:52.172Z,100043.41
2022-11-07T11:25:23.934Z,100044.28
2022-11-07T11:26:30.462Z,100050.72
2022-11-07T11:27:35.278Z,100025.53
2022-11-07T11:28:44.352Z,100031.34
2022-11-07T11:30:06.574Z,100041.16
2022-11-07T11:31:37.125Z,100036.88
2022-11-07T11:32:51.331Z,100029.28
2022-11-07T11:34:18.868Z,100038.53
2022-11-07T11:35:42.604Z,100039.34
2022-11-07T11:37:02.862Z,100035.63
2022-11-07T11:38:09.194Z,100034.34
2022-11-07T11:39:28.666Z,100028.31
2022-11-07T11:40:38.219Z,100035.56
2022-11-07T11:41:50.357Z,100017.44
2022-11-07T11:43:05.872Z,100026.59
2022-11-07T11:44:16.556Z,100027.69
2022-11-07T11:45:31.053Z,100036.81
2022-11-07T11:46:54.618Z,100037.22
2022-11-07T11:48:07.243Z,100009.31
2022-11-07T11:49:18.030Z,100040.13
2022-11-07T11:50:28.817Z,100032.44
2022-11-07T11:52:02.458Z,100031.47
2022-11-07T11:53:04.576Z,100034.53
2022-11-07T11:54:15.217Z,100032.44
2022-11-07T11:55:20.846Z,100031.81
2022-11-07T11:56:46.475Z,100025.56
2022-11-07T11:58:03.426Z,100017.47
2022-11-07T11:59:26.310Z,99999.16
2022-11-07T12:00:31.607Z,100024.78
2022-11-07T12:01:55.122Z,100019.38
2022-11-07T12:02:59.441Z,100033.06
2022-11-07T12:04:38.695Z,100020.41
2022-11-07T12:05:51.959Z,100022.72
2022-11-07T12:07:06.178Z,100026.84
2022-11-07T12:08:26.212Z,100029.53
2022-11-07T12:09:36.533Z,100030.56
2022-11-07T12:10:55.915Z,100017.88
2022-11-07T12:12:08.986Z,100016.84
2022-11-07T12:13:29.198Z,100025.63
2022-11-07T12:14:30.889Z,100016.28
2022-11-07T12:15:48.765Z,100020.19
2022-11-07T12:17:08.864Z,100020.19
2022-11-07T12:18:19.637Z,100013.56
2022-11-07T12:19:50.723Z,100011.06
2022-11-07T12:21:05.951Z,100006.94
2022-11-07T12:22:26.064Z,99997.81
2022-11-07T12:23:45.515Z,100005.47
2022-11-07T12:24:52.909Z,99999.06
2022-11-07T12:26:17.690Z,100001.13
2022-11-07T12:27:51.874Z,99999.47
2022-11-07T12:29:05.721Z,99995.75